createdAt,value
2018-09-13T00:00:00.504Z,99.90
2018-09-13T00:02:28.248Z,99.90
2018-09-13T00:04:56.015Z,99.90
2018-09-13T00:07:23.752Z,99.90
2018-09-13T00:09:51.585Z,99.90
2018-09-13T00:12:19.357Z,99.90
2018-09-13T00:14:53.727Z,99.90
2018-09-13T00:17:21.491Z,99.90
2018-09-13T00:19:49.349Z,99.90
2018-09-13T00:22:17.207Z,99.90
2018-09-13T00:24:44.915Z,99.90
2018-09-13T00:27:12.686Z,99.90
2018-09-13T00:29:40.593Z,99.90
2018-09-13T00:32:08.333Z,99.90
2018-09-13T00:34:36.125Z,99.90
2018-09-13T00:37:03.960Z,99.90
2018-09-13T00:39:32.876Z,99.90
2018-09-13T00:42:00.582Z,99.90
2018-09-13T00:44:28.364Z,99.90
2018-09-13T00:46:56.100Z,99.90
2018-09-13T00:49:23.890Z,99.90
2018-09-13T00:51:51.597Z,99.90
2018-09-13T00:54:19.319Z,99.90
2018-09-13T00:56:47.044Z,99.90
2018-09-13T00:59:15.980Z,99.90
2018-09-13T01:01:43.720Z,99.90
2018-09-13T01:04:11.431Z,99.90
2018-09-13T01:06:39.255Z,99.90
2018-09-13T01:09:09.261Z,99.90
2018-09-13T01:11:37.082Z,99.90
2018-09-13T01:14:04.897Z,99.90
2018-09-13T01:16:32.698Z,99.90
2018-09-13T01:19:00.656Z,99.90
2018-09-13T01:21:28.408Z,99.90
2018-09-13T01:23:56.113Z,99.90
2018-09-13T01:26:23.885Z,99.90
2018-09-13T01:28:51.819Z,99.90
2018-09-13T01:31:19.551Z,99.90
2018-09-13T01:33:47.385Z,99.90
2018-09-13T01:36:15.078Z,99.90
2018-09-13T01:38:42.913Z,99.90
2018-09-13T01:41:10.705Z,99.90
2018-09-13T01:43:38.455Z,99.90
2018-09-13T01:46:06.294Z,99.90
2018-09-13T01:48:36.209Z,99.90
2018-09-13T01:51:03.956Z,99.90
2018-09-13T01:53:31.677Z,99.90
2018-09-13T01:55:59.395Z,99.90
2018-09-13T01:58:27.239Z,99.90
2018-09-13T02:00:55.002Z,99.90
2018-09-13T02:03:22.967Z,99.90
2018-09-13T02:05:50.705Z,99.90
2018-09-13T02:08:18.472Z,99.90
2018-09-13T02:10:46.197Z,99.90
2018-09-13T02:13:13.937Z,99.90
2018-09-13T02:15:41.673Z,99.90
2018-09-13T02:18:09.672Z,99.90
2018-09-13T02:20:37.458Z,99.90
2018-09-13T02:23:05.213Z,99.90
2018-09-13T02:25:32.972Z,99.90
2018-09-13T02:28:01.824Z,99.90
2018-09-13T02:30:29.569Z,99.90
2018-09-13T02:32:57.283Z,99.90
2018-09-13T02:35:25.053Z,99.90
2018-09-13T02:37:53.963Z,99.90
2018-09-13T02:40:21.737Z,99.90
2018-09-13T02:42:49.571Z,99.90
2018-09-13T02:45:17.407Z,99.90
2018-09-13T02:47:49.143Z,99.90
2018-09-13T02:50:16.915Z,99.90
2018-09-13T02:52:44.744Z,99.90
2018-09-13T02:55:12.445Z,99.90
2018-09-13T02:57:40.400Z,99.90
2018-09-13T03:00:08.908Z,99.90
2018-09-13T03:02:36.676Z,99.90
2018-09-13T03:05:04.593Z,99.90
2018-09-13T03:07:32.331Z,99.90
2018-09-13T03:10:00.108Z,99.90
2018-09-13T03:12:27.898Z,99.90
2018-09-13T03:14:55.615Z,99.90
2018-09-13T03:17:23.355Z,99.90
2018-09-13T03:19:51.147Z,99.90
2018-09-13T03:22:18.929Z,99.90
2018-09-13T03:24:46.630Z,99.90
2018-09-13T03:27:14.357Z,99.90
2018-09-13T03:29:42.172Z,99.90
2018-09-13T03:32:09.909Z,99.90
2018-09-13T03:34:37.714Z,99.90
2018-09-13T03:37:05.480Z,99.90
2018-09-13T03:39:33.275Z,99.90
2018-09-13T03:42:01.052Z,99.90
2018-09-13T03:44:28.828Z,99.90
2018-09-13T03:46:56.533Z,99.90
2018-09-13T03:49:24.251Z,99.90
2018-09-13T03:51:52.421Z,99.90
2018-09-13T03:54:20.198Z,99.90
2018-09-13T03:56:47.925Z,99.90
2018-09-13T03:59:15.720Z,99.90
2018-09-13T04:01:43.455Z,99.90
2018-09-13T04:04:11.256Z,99.90
2018-09-13T04:06:39.007Z,99.90
2018-09-13T04:09:09.173Z,99.90
2018-09-13T04:11:37.005Z,99.90
2018-09-13T04:14:04.820Z,99.90
2018-09-13T04:16:32.561Z,99.90
2018-09-13T04:19:00.300Z,99.90
2018-09-13T04:21:28.361Z,99.90
2018-09-13T04:23:56.263Z,99.90
2018-09-13T04:26:24.161Z,99.90
2018-09-13T04:28:52.485Z,99.90
2018-09-13T04:31:20.211Z,99.90
2018-09-13T04:33:47.940Z,99.90
2018-09-13T04:36:15.707Z,99.90
2018-09-13T04:38:43.467Z,99.90
2018-09-13T04:41:11.213Z,99.90
2018-09-13T04:43:39.006Z,99.90
2018-09-13T04:46:06.892Z,99.90
2018-09-13T04:48:34.618Z,99.90
2018-09-13T04:51:02.709Z,99.90
2018-09-13T04:53:30.837Z,99.90
2018-09-13T04:55:58.644Z,99.90
2018-09-13T04:58:26.455Z,99.90
2018-09-13T05:00:54.249Z,99.90
2018-09-13T05:03:22.009Z,99.90
2018-09-13T05:05:49.775Z,99.90
2018-09-13T05:08:17.514Z,99.90
2018-09-13T05:10:45.355Z,99.90
2018-09-13T05:13:13.205Z,99.90
2018-09-13T05:15:40.955Z,99.90
2018-09-13T05:18:08.752Z,99.90
2018-09-13T05:20:36.557Z,99.90
2018-09-13T05:23:04.767Z,99.90
2018-09-13T05:25:32.625Z,99.90
2018-09-13T05:28:00.424Z,99.90
2018-09-13T05:30:28.240Z,99.90
2018-09-13T05:32:56.355Z,99.90
2018-09-13T05:35:24.097Z,99.90
2018-09-13T05:37:51.890Z,99.90
2018-09-13T05:40:19.701Z,99.90
2018-09-13T05:42:47.605Z,99.90
2018-09-13T05:45:15.727Z,99.90
2018-09-13T05:47:43.695Z,99.90
2018-09-13T05:50:11.462Z,99.90
2018-09-13T05:52:39.265Z,99.90
2018-09-13T05:55:07.307Z,99.90
2018-09-13T05:57:35.137Z,99.90
2018-09-13T06:00:03.009Z,99.90
2018-09-13T06:02:30.782Z,99.90
2018-09-13T06:04:58.507Z,99.90
2018-09-13T06:07:26.299Z,99.90
2018-09-13T06:09:54.176Z,99.90
2018-09-13T06:12:21.905Z,99.90
2018-09-13T06:14:49.675Z,99.90
2018-09-13T06:17:17.462Z,99.90
2018-09-13T06:19:45.268Z,99.90
2018-09-13T06:22:12.961Z,99.90
2018-09-13T06:24:40.725Z,99.90
2018-09-13T06:27:08.507Z,99.90
2018-09-13T06:29:36.634Z,99.90
2018-09-13T06:32:04.353Z,99.90
2018-09-13T06:34:32.103Z,99.90
2018-09-13T06:36:59.875Z,99.90
2018-09-13T06:39:27.789Z,99.90
2018-09-13T06:41:55.577Z,99.90
2018-09-13T06:44:23.366Z,99.90
2018-09-13T06:46:51.220Z,99.90
2018-09-13T06:49:19.117Z,99.90
2018-09-13T06:51:46.954Z,99.90
2018-09-13T06:54:14.773Z,99.90
2018-09-13T06:56:42.749Z,99.90
2018-09-13T06:59:10.497Z,99.90
2018-09-13T07:01:38.306Z,99.90
2018-09-13T07:04:06.120Z,99.90
2018-09-13T07:06:33.875Z,99.90
2018-09-13T07:09:01.686Z,99.90
2018-09-13T07:11:29.433Z,99.90
2018-09-13T07:13:57.151Z,99.90
2018-09-13T07:16:24.871Z,99.90
2018-09-13T07:18:52.576Z,99.90
2018-09-13T07:21:20.330Z,99.90
2018-09-13T07:23:48.064Z,99.90
2018-09-13T07:26:15.802Z,99.90
2018-09-13T07:28:43.538Z,99.90
2018-09-13T07:31:11.295Z,99.90
2018-09-13T07:33:39.081Z,99.90
2018-09-13T07:36:06.839Z,99.90
2018-09-13T07:38:34.643Z,99.90
2018-09-13T07:41:02.385Z,99.90
2018-09-13T07:43:30.105Z,99.90
2018-09-13T07:45:57.871Z,99.90
2018-09-13T07:48:25.630Z,99.90
2018-09-13T07:50:53.356Z,99.90
2018-09-13T07:53:21.196Z,99.90
2018-09-13T07:55:49.195Z,99.90
2018-09-13T07:58:17.014Z,99.90
2018-09-13T08:00:44.751Z,99.90
2018-09-13T08:03:12.482Z,99.90
2018-09-13T08:05:40.201Z,99.90
2018-09-13T08:08:07.946Z,99.90
2018-09-13T08:10:35.759Z,99.90
2018-09-13T08:13:03.485Z,99.90
2018-09-13T08:15:31.314Z,99.90
2018-09-13T08:17:59.132Z,99.90
2018-09-13T08:20:26.864Z,99.90
2018-09-13T08:22:54.656Z,99.90
2018-09-13T08:25:22.373Z,99.90
2018-09-13T08:27:50.104Z,99.90
2018-09-13T08:30:17.843Z,99.90
2018-09-13T08:32:45.584Z,99.90
2018-09-13T08:35:13.376Z,99.90
2018-09-13T08:37:41.093Z,99.90
2018-09-13T08:40:08.857Z,99.90
2018-09-13T08:42:36.596Z,99.90
2018-09-13T08:45:04.367Z,99.90
2018-09-13T08:47:32.100Z,99.90
2018-09-13T08:49:59.967Z,99.90
2018-09-13T08:52:27.826Z,99.90
2018-09-13T08:54:55.535Z,99.90
2018-09-13T08:57:23.368Z,99.90
2018-09-13T08:59:51.226Z,99.90
2018-09-13T09:02:19.122Z,99.90
2018-09-13T09:04:46.844Z,99.90
2018-09-13T09:07:14.619Z,99.90
2018-09-13T09:09:42.343Z,99.90
2018-09-13T09:12:10.084Z,99.90
2018-09-13T09:14:37.803Z,99.90
2018-09-13T09:17:05.903Z,99.90
2018-09-13T09:19:33.660Z,99.90
2018-09-13T09:22:01.373Z,99.90
2018-09-13T09:24:29.130Z,99.90
2018-09-13T09:26:56.885Z,99.90
2018-09-13T09:29:24.781Z,99.90
2018-09-13T09:31:52.441Z,99.90
2018-09-13T09:34:20.227Z,99.90
2018-09-13T09:36:47.989Z,99.90
2018-09-13T09:39:15.754Z,99.90
2018-09-13T09:41:43.701Z,99.90
2018-09-13T09:44:11.526Z,99.90
2018-09-13T09:46:42.884Z,99.90
2018-09-13T09:49:10.680Z,99.90
2018-09-13T09:51:38.436Z,99.90
2018-09-13T09:54:06.176Z,99.90
2018-09-13T09:56:33.923Z,99.90
2018-09-13T09:59:01.661Z,99.90
2018-09-13T10:01:35.521Z,99.90
2018-09-13T10:04:03.305Z,99.90
2018-09-13T10:06:31.097Z,99.90
2018-09-13T10:08:58.952Z,99.90
2018-09-13T10:11:26.731Z,99.90
2018-09-13T10:13:54.470Z,99.90
2018-09-13T10:16:27.730Z,99.90
2018-09-13T10:19:00.954Z,99.90
2018-09-13T10:21:34.255Z,99.90
2018-09-13T10:24:07.781Z,99.90
2018-09-13T10:26:41.172Z,99.90
2018-09-13T10:29:14.496Z,99.90
2018-09-13T10:31:47.670Z,99.90
2018-09-13T10:34:21.223Z,99.90
2018-09-13T10:36:54.563Z,99.90
2018-09-13T10:39:27.955Z,99.90
2018-09-13T10:42:01.397Z,99.90
2018-09-13T10:45:32.154Z,99.90
2018-09-13T10:48:05.547Z,99.90
2018-09-13T10:50:38.517Z,99.90
2018-09-13T10:55:16.831Z,99.90
2018-09-13T10:57:44.807Z,99.90
2018-09-13T11:00:13.918Z,99.90
2018-09-13T11:02:41.724Z,99.90
2018-09-13T11:05:09.552Z,99.60
2018-09-13T11:07:37.304Z,99.70
2018-09-13T11:10:06.261Z,98.30
2018-09-13T11:12:43.485Z,98.20
2018-09-13T11:15:16.859Z,99.90
2018-09-13T11:17:44.674Z,99.90
2018-09-13T11:20:12.465Z,99.90
2018-09-13T11:22:40.265Z,99.90
2018-09-13T11:25:08.059Z,99.90
2018-09-13T11:27:35.874Z,99.90
2018-09-13T11:30:03.889Z,99.90
2018-09-13T11:32:31.729Z,99.90
2018-09-13T11:34:59.614Z,99.90
2018-09-13T11:37:27.399Z,99.90
2018-09-13T11:39:55.313Z,99.90
2018-09-13T11:42:23.021Z,99.90
2018-09-13T11:44:50.838Z,99.90
2018-09-13T11:47:18.575Z,99.90
2018-09-13T11:49:46.452Z,98.50
2018-09-13T11:52:14.335Z,99.10
2018-09-13T11:54:42.063Z,98.90
2018-09-13T11:57:09.851Z,98.10
2018-09-13T11:59:37.591Z,98.50
2018-09-13T12:02:05.515Z,97.90
2018-09-13T12:04:33.313Z,96.50
2018-09-13T12:07:01.039Z,94.90
2018-09-13T12:09:28.767Z,93.70
2018-09-13T12:11:56.509Z,93.60
2018-09-13T12:14:24.297Z,90.70
2018-09-13T12:16:52.053Z,91.60
2018-09-13T12:19:19.833Z,90.00
2018-09-13T12:21:47.570Z,90.70
2018-09-13T12:24:15.303Z,89.70
2018-09-13T12:26:43.008Z,87.90
2018-09-13T12:29:10.760Z,86.70
2018-09-13T12:31:38.581Z,84.80
2018-09-13T12:34:06.404Z,87.80
2018-09-13T12:36:34.163Z,87.20
2018-09-13T12:39:02.025Z,81.80
2018-09-13T12:41:29.790Z,77.70
2018-09-13T12:43:57.520Z,77.00
2018-09-13T12:46:25.279Z,75.20
2018-09-13T12:48:53.217Z,77.40
2018-09-13T12:51:21.139Z,79.00
2018-09-13T12:53:49.049Z,78.20
2018-09-13T12:56:17.070Z,77.30
2018-09-13T12:58:45.025Z,75.90
2018-09-13T13:01:12.793Z,74.40
2018-09-13T13:03:40.550Z,75.00
2018-09-13T13:06:08.363Z,73.00
2018-09-13T13:08:36.181Z,74.80
2018-09-13T13:11:04.068Z,73.30
2018-09-13T13:13:31.879Z,72.10
2018-09-13T13:15:59.618Z,71.80
2018-09-13T13:18:27.393Z,70.90
2018-09-13T13:20:55.214Z,73.60
2018-09-13T13:23:23.200Z,73.10
2018-09-13T13:25:51.224Z,73.10
2018-09-13T13:28:19.012Z,75.30
2018-09-13T13:30:46.877Z,77.90
2018-09-13T13:33:14.849Z,75.90
2018-09-13T13:35:42.865Z,77.40
2018-09-13T13:38:10.681Z,77.10
2018-09-13T13:40:38.567Z,75.60
2018-09-13T13:43:06.347Z,73.10
2018-09-13T13:45:34.242Z,71.40
2018-09-13T13:48:02.324Z,71.50
2018-09-13T13:50:30.249Z,68.60
2018-09-13T13:52:57.985Z,69.30
2018-09-13T13:55:26.081Z,70.70
2018-09-13T13:57:53.869Z,69.50
2018-09-13T14:00:21.949Z,68.40
2018-09-13T14:02:49.877Z,66.90
2018-09-13T14:05:17.958Z,68.70
2018-09-13T14:07:45.964Z,65.60
2018-09-13T14:10:14.030Z,65.80
2018-09-13T14:12:41.951Z,65.20
2018-09-13T14:15:09.891Z,64.30
2018-09-13T14:17:37.837Z,62.60
2018-09-13T14:20:05.882Z,61.10
2018-09-13T14:22:33.886Z,61.50
2018-09-13T14:25:01.975Z,62.70
2018-09-13T14:27:29.994Z,60.60
2018-09-13T14:29:58.086Z,63.40
2018-09-13T14:32:26.005Z,63.40
2018-09-13T14:34:54.038Z,64.20
2018-09-13T14:37:21.994Z,66.20
2018-09-13T14:39:50.079Z,68.30
2018-09-13T14:42:17.958Z,68.50
2018-09-13T14:44:45.858Z,68.30
2018-09-13T14:47:13.770Z,67.30
2018-09-13T14:49:41.651Z,67.60
2018-09-13T14:52:09.568Z,66.90
2018-09-13T14:54:37.496Z,69.40
2018-09-13T14:57:05.514Z,68.50
2018-09-13T14:59:33.517Z,67.70
2018-09-13T15:02:01.405Z,68.30
2018-09-13T15:04:29.575Z,67.30
2018-09-13T15:06:57.791Z,67.70
2018-09-13T15:09:25.825Z,68.90
2018-09-13T15:11:53.947Z,67.30
2018-09-13T15:14:22.022Z,68.00
2018-09-13T15:16:50.035Z,68.60
2018-09-13T15:19:18.061Z,68.20
2018-09-13T15:21:46.056Z,71.30
2018-09-13T15:24:14.114Z,68.40
2018-09-13T15:26:42.069Z,70.10
2018-09-13T15:29:10.241Z,67.80
2018-09-13T15:31:38.168Z,68.40
2018-09-13T15:34:06.325Z,68.40
2018-09-13T15:36:34.330Z,64.40
2018-09-13T15:39:02.402Z,61.40
2018-09-13T15:41:30.313Z,61.20
2018-09-13T15:43:58.400Z,61.70
2018-09-13T15:46:26.471Z,63.90
2018-09-13T15:48:54.567Z,64.00
2018-09-13T15:51:22.675Z,65.30
2018-09-13T15:53:50.679Z,64.60
2018-09-13T15:56:18.713Z,65.00
2018-09-13T15:58:46.992Z,64.90
2018-09-13T16:01:14.914Z,65.50
2018-09-13T16:03:42.817Z,66.90
2018-09-13T16:06:10.953Z,68.10
2018-09-13T16:08:39.034Z,68.10
2018-09-13T16:11:07.222Z,68.20
2018-09-13T16:13:35.275Z,67.70
2018-09-13T16:16:03.340Z,67.80
2018-09-13T16:18:31.525Z,69.10
2018-09-13T16:20:59.532Z,67.90
2018-09-13T16:23:27.627Z,69.50
2018-09-13T16:25:55.545Z,70.00
2018-09-13T16:28:23.545Z,69.60
2018-09-13T16:30:51.480Z,69.60
2018-09-13T16:33:19.921Z,69.30
2018-09-13T16:35:52.319Z,70.80
2018-09-13T16:38:29.062Z,69.10
2018-09-13T16:41:03.269Z,70.20
2018-09-13T16:43:43.229Z,69.00
2018-09-13T16:46:17.677Z,70.10
2018-09-13T16:48:45.736Z,70.10
2018-09-13T16:51:13.797Z,70.60
2018-09-13T16:53:42.037Z,70.80
2018-09-13T16:56:10.159Z,71.50
2018-09-13T16:58:38.309Z,72.00
2018-09-13T17:01:06.302Z,71.50
2018-09-13T17:03:34.175Z,72.70
2018-09-13T17:06:02.143Z,72.70
2018-09-13T17:08:30.218Z,73.80
2018-09-13T17:10:58.184Z,76.10
2018-09-13T17:13:26.078Z,75.00
2018-09-13T17:15:53.925Z,76.80
2018-09-13T17:18:21.760Z,78.00
2018-09-13T17:20:49.730Z,78.20
2018-09-13T17:23:17.652Z,76.90
2018-09-13T17:25:45.627Z,77.30
2018-09-13T17:28:13.569Z,77.20
2018-09-13T17:30:41.589Z,77.20
2018-09-13T17:33:09.637Z,78.30
2018-09-13T17:35:37.671Z,77.90
2018-09-13T17:38:05.714Z,78.30
2018-09-13T17:40:33.754Z,78.60
2018-09-13T17:43:01.772Z,78.70
2018-09-13T17:45:29.632Z,79.60
2018-09-13T17:47:57.559Z,79.00
2018-09-13T17:50:25.886Z,79.90
2018-09-13T17:52:54.098Z,80.30
2018-09-13T17:55:22.248Z,82.90
2018-09-13T17:57:50.581Z,83.50
2018-09-13T18:00:18.680Z,83.60
2018-09-13T18:02:47.055Z,86.20
2018-09-13T18:05:15.235Z,88.40
2018-09-13T18:07:43.439Z,88.90
2018-09-13T18:10:11.491Z,90.10
2018-09-13T18:12:39.770Z,90.20
2018-09-13T18:15:08.130Z,90.10
2018-09-13T18:17:36.304Z,90.70
2018-09-13T18:20:04.268Z,90.80
2018-09-13T18:22:32.265Z,91.20
2018-09-13T18:25:00.336Z,92.40
2018-09-13T18:27:28.369Z,93.30
2018-09-13T18:29:56.497Z,90.70
2018-09-13T18:32:24.616Z,90.90
2018-09-13T18:34:52.890Z,90.40
2018-09-13T18:37:21.025Z,90.10
2018-09-13T18:39:49.206Z,90.20
2018-09-13T18:42:17.397Z,90.00
2018-09-13T18:44:45.567Z,90.10
2018-09-13T18:47:14.152Z,89.50
2018-09-13T18:49:41.947Z,90.00
2018-09-13T18:52:09.762Z,90.10
2018-09-13T18:54:37.932Z,90.30
2018-09-13T18:57:06.167Z,90.10
2018-09-13T18:59:34.471Z,90.40
2018-09-13T19:02:02.541Z,90.30
2018-09-13T19:04:30.782Z,90.30
2018-09-13T19:06:58.976Z,90.70
2018-09-13T19:09:27.251Z,90.80
2018-09-13T19:11:55.296Z,91.40
2018-09-13T19:14:23.394Z,91.00
2018-09-13T19:16:51.533Z,91.60
2018-09-13T19:19:19.634Z,91.80
2018-09-13T19:21:48.665Z,92.20
2018-09-13T19:24:16.879Z,93.00
2018-09-13T19:26:45.315Z,93.10
2018-09-13T19:29:13.450Z,94.30
2018-09-13T19:31:41.643Z,93.80
2018-09-13T19:34:09.909Z,94.00
2018-09-13T19:36:38.123Z,94.70
2018-09-13T19:39:11.673Z,95.50
2018-09-13T19:41:40.193Z,96.20
2018-09-13T19:44:08.329Z,98.50
2018-09-13T19:46:36.497Z,98.40
2018-09-13T19:49:04.742Z,99.60
2018-09-13T19:51:32.698Z,99.90
2018-09-13T19:54:00.674Z,99.90
2018-09-13T19:56:28.737Z,99.90
2018-09-13T19:58:56.773Z,99.90
2018-09-13T20:01:24.813Z,99.90
2018-09-13T20:03:52.840Z,99.90
2018-09-13T20:06:20.984Z,99.90
2018-09-13T20:09:52.043Z,99.90
2018-09-13T20:12:20.144Z,99.90
2018-09-13T20:14:48.196Z,99.90
2018-09-13T20:17:16.245Z,99.90
2018-09-13T20:19:44.361Z,99.90
2018-09-13T20:22:13.056Z,99.90
2018-09-13T20:24:41.206Z,99.90
2018-09-13T20:27:09.334Z,99.90
2018-09-13T20:29:37.403Z,99.90
2018-09-13T20:32:05.523Z,99.90
2018-09-13T20:34:33.678Z,99.90
2018-09-13T20:37:01.592Z,99.90
2018-09-13T20:39:29.609Z,99.90
2018-09-13T20:41:57.666Z,99.90
2018-09-13T20:44:25.631Z,99.90
2018-09-13T20:46:53.635Z,99.90
2018-09-13T20:49:21.506Z,99.90
2018-09-13T20:51:49.471Z,99.90
2018-09-13T20:54:17.747Z,99.90
2018-09-13T20:56:45.643Z,99.90
2018-09-13T20:59:13.509Z,99.90
2018-09-13T21:01:41.599Z,99.90
2018-09-13T21:04:09.491Z,99.90
2018-09-13T21:06:37.411Z,99.90
2018-09-13T21:09:07.607Z,99.90
2018-09-13T21:11:35.543Z,99.90
2018-09-13T21:14:03.503Z,99.90
2018-09-13T21:16:31.443Z,99.90
2018-09-13T21:18:59.355Z,99.90
2018-09-13T21:21:27.743Z,99.90
2018-09-13T21:23:56.419Z,99.90
2018-09-13T21:26:24.337Z,99.90
2018-09-13T21:28:54.357Z,99.90
2018-09-13T21:31:22.219Z,99.90
2018-09-13T21:33:50.623Z,99.90
2018-09-13T21:36:18.516Z,99.90
2018-09-13T21:38:46.713Z,99.90
2018-09-13T21:41:14.674Z,99.90
2018-09-13T21:43:42.496Z,99.90
2018-09-13T21:46:10.393Z,99.90
2018-09-13T21:48:38.188Z,99.90
2018-09-13T21:51:06.213Z,99.90
2018-09-13T21:53:34.060Z,99.90
2018-09-13T21:56:01.899Z,99.90
2018-09-13T21:58:29.712Z,99.90
2018-09-13T22:00:57.633Z,99.90
2018-09-13T22:03:25.418Z,99.90
2018-09-13T22:05:53.257Z,99.90
2018-09-13T22:08:21.139Z,99.90
2018-09-13T22:10:49.717Z,99.90
2018-09-13T22:13:17.579Z,99.90
2018-09-13T22:15:45.389Z,99.90
2018-09-13T22:18:13.315Z,99.90
2018-09-13T22:20:41.243Z,99.90
2018-09-13T22:23:09.185Z,99.90
2018-09-13T22:25:37.093Z,99.90
2018-09-13T22:28:05.085Z,99.90
2018-09-13T22:30:32.991Z,99.90
2018-09-13T22:33:00.832Z,99.90
2018-09-13T22:35:28.708Z,99.90
2018-09-13T22:37:57.178Z,99.90
2018-09-13T22:40:25.071Z,99.90
2018-09-13T22:42:53.045Z,99.90
2018-09-13T22:45:20.950Z,99.90
2018-09-13T22:47:48.874Z,99.90
2018-09-13T22:50:16.722Z,99.90
2018-09-13T22:52:44.591Z,99.90
2018-09-13T22:55:12.471Z,99.90
2018-09-13T22:57:41.316Z,99.90
2018-09-13T23:00:09.320Z,99.90
2018-09-13T23:02:42.827Z,99.90
2018-09-13T23:05:10.799Z,99.90
2018-09-13T23:07:38.712Z,99.90
2018-09-13T23:10:06.677Z,99.90
2018-09-13T23:12:34.536Z,99.90
2018-09-13T23:15:02.438Z,99.90
2018-09-13T23:17:30.407Z,99.90
2018-09-13T23:19:58.271Z,99.90
2018-09-13T23:22:26.060Z,99.90
2018-09-13T23:24:53.932Z,99.90
2018-09-13T23:27:21.788Z,99.90
2018-09-13T23:29:49.608Z,99.90
2018-09-13T23:32:17.456Z,99.90
2018-09-13T23:34:45.303Z,99.90
2018-09-13T23:37:13.148Z,99.90
2018-09-13T23:39:41.309Z,99.90
2018-09-13T23:42:08.832Z,99.90
2018-09-13T23:44:36.686Z,99.90
2018-09-13T23:47:04.576Z,99.90
2018-09-13T23:49:32.510Z,99.90
2018-09-13T23:52:00.302Z,99.90
2018-09-13T23:54:28.200Z,99.90
2018-09-13T23:56:56.499Z,99.90
2018-09-13T23:59:24.365Z,99.90
